Bookmark and Share
Track history (hours):
 

Star Epsilon

Last reported at 2014-Apr-18 21:28 UTC. Time now 2014-Apr-19 00:06 UTC.
Position N 37°39' E 120°18'.

Length 189 m; draft 6 m.

Type: Cargo ship. MMSI: 538003043.

NotesDate/timePositionNaut miles runAvg speedWind from/ knotsBaromVisibWave heightAir tempDewpointWater temp
2014-Apr-18 21:28N 37°39' E 120°18'0 0.0
2014-Apr-18 20:10N 37°39' E 120°18'0 0.0
2014-Apr-18 19:22N 37°39' E 120°18'0 0.0
2014-Apr-18 18:31N 37°39' E 120°18'0 0.0
2014-Apr-18 17:04N 37°39' E 120°18'0 0.0
2014-Apr-18 16:16N 37°39' E 120°18'0 0.0
2014-Apr-18 15:13N 37°39' E 120°18'0 0.0
2014-Apr-18 14:19N 37°39' E 120°18'0 0.0
2014-Apr-18 10:25N 37°39' E 120°18'0 0.0
2014-Apr-18 09:19N 37°39' E 120°18'0 0.0
2014-Apr-18 08:31N 37°39' E 120°18'0 0.0
2014-Apr-18 07:16N 37°39' E 120°18'0 0.0
2014-Apr-18 06:22N 37°39' E 120°18'0 0.0
2014-Apr-18 05:22N 37°39' E 120°18'0 0.0
2014-Apr-18 04:10N 37°39' E 120°18'0 0.0
2014-Apr-18 03:28N 37°39' E 120°18'0 0.0
2014-Apr-18 02:28N 37°39' E 120°18'0 0.0
2014-Apr-18 00:16N 37°39' E 120°18'0 0.0
2014-Apr-17 19:16N 37°39' E 120°18'0 0.0
2014-Apr-17 18:22N 37°39' E 120°18'0 0.0
2014-Apr-17 16:28N 37°39' E 120°18'0 0.0
2014-Apr-17 15:31N 37°39' E 120°18'0 0.0
2014-Apr-17 13:19N 37°39' E 120°18'0 0.0
2014-Apr-17 09:10N 37°39' E 120°18'0 0.0
2014-Apr-17 08:04N 37°39' E 120°18'0 0.0
2014-Apr-17 07:07N 37°39' E 120°18'0 0.0
2014-Apr-17 06:22N 37°39' E 120°18'0 0.0
2014-Apr-17 03:22N 37°39' E 120°18'0 0.0
2014-Apr-17 02:31N 37°39' E 120°18'0 0.0
2014-Apr-16 23:28N 37°39' E 120°18'0 0.0
2014-Apr-16 22:22N 37°39' E 120°18'0 0.0
2014-Apr-16 21:28N 37°39' E 120°18'0 0.0
2014-Apr-16 20:22N 37°39' E 120°18'0 0.0
2014-Apr-16 19:28N 37°39' E 120°18'0 0.0
2014-Apr-16 18:28N 37°39' E 120°18'0 0.0
2014-Apr-16 17:31N 37°39' E 120°18'0 0.0
2014-Apr-16 16:22N 37°39' E 120°18'0 0.0
2014-Apr-16 15:28N 37°39' E 120°18'0 0.0
2014-Apr-16 14:13N 37°39' E 120°18'0 0.0
2014-Apr-16 13:28N 37°39' E 120°18'0 0.0
2014-Apr-16 11:25N 37°39' E 120°18'0 0.0
2014-Apr-16 10:22N 37°39' E 120°18'0 0.0
2014-Apr-16 09:22N 37°39' E 120°18'0 0.0
2014-Apr-16 08:16N 37°39' E 120°18'0 0.1
2014-Apr-16 07:22N 37°39' E 120°18'0 0.0
2014-Apr-16 06:28N 37°39' E 120°18'0 0.0
2014-Apr-16 05:28N 37°39' E 120°18'0 0.0
2014-Apr-16 04:28N 37°39' E 120°18'0 0.0
2014-Apr-16 01:25N 37°39' E 120°18'0 0.0
2014-Apr-16 00:22N 37°39' E 120°18'0 0.0
2014-Apr-15 20:10N 37°39' E 120°18'0 0.0
2014-Apr-15 19:07N 37°39' E 120°18'0 0.0
2014-Apr-15 16:08N 37°39' E 120°18'0 0.0
2014-Apr-15 10:32N 37°39' E 120°18'124 3.4
2014-Apr-13 22:33N 37°23' E 122°53'37010.0
2014-Apr-12 09:31N 31°17' E 121°44'1211.8
2014-Apr-12 08:33N 31°24' E 121°33'1210.8
2014-Apr-12 07:27N 31°32' E 121°22'9 9.7
2014-Apr-12 06:32N 31°38' E 121°15'10 8.5
2014-Apr-12 05:20N 31°45' E 121°06'6 7.4
2014-Apr-12 04:33N 31°47' E 120°59'6 6.4
2014-Apr-12 03:33N 31°51' E 120°54'7 7.4
2014-Apr-12 02:33N 31°58' E 120°51'2 1.8
2014-Apr-12 01:24N 31°59' E 120°49'0 0.0
2014-Apr-12 00:06N 31°59' E 120°49'0 0.0
2014-Apr-11 23:18N 31°59' E 120°49'0 0.0
2014-Apr-11 21:24N 31°59' E 120°49'0 0.1
2014-Apr-11 20:30N 31°59' E 120°49'0 0.0
2014-Apr-11 19:24N 31°59' E 120°49'0 0.0
2014-Apr-11 18:33N 31°59' E 120°49'0 0.1
2014-Apr-11 17:27N 31°59' E 120°49'0 0.1
2014-Apr-11 16:30N 31°59' E 120°49'0 0.0
2014-Apr-11 15:24N 31°59' E 120°49'0 0.1
2014-Apr-11 14:24N 31°59' E 120°49'0 0.1
2014-Apr-11 13:30N 31°59' E 120°49'0 0.0
2014-Apr-11 12:30N 31°59' E 120°49'0 0.0
2014-Apr-11 11:33N 31°59' E 120°49'0 0.0
2014-Apr-11 10:33N 31°59' E 120°49'0 0.0
2014-Apr-11 09:30N 31°59' E 120°49'0 0.1
2014-Apr-11 08:30N 31°59' E 120°49'0 0.1
2014-Apr-11 07:24N 31°59' E 120°49'0 0.1
2014-Apr-11 06:12N 31°59' E 120°49'0 0.1
2014-Apr-11 05:30N 31°59' E 120°49'0 0.0
2014-Apr-11 04:33N 31°59' E 120°49'0 0.0
2014-Apr-11 03:30N 31°59' E 120°49'0 0.0
2014-Apr-11 02:27N 31°59' E 120°49'0 0.2
2014-Apr-11 01:33N 31°59' E 120°49'1 0.6
2014-Apr-11 00:29N 31°60' E 120°50'0 0.0
2014-Apr-10 23:29N 31°60' E 120°50'0 0.1
2014-Apr-10 22:30N 31°60' E 120°50'0 0.0
2014-Apr-10 21:17N 31°60' E 120°50'0 0.0
2014-Apr-10 20:23N 31°60' E 120°50'0 0.0
2014-Apr-10 19:32N 31°60' E 120°50'0 0.0
2014-Apr-10 18:24N 31°60' E 120°50'0 0.0
2014-Apr-10 17:32N 31°60' E 120°50'0 0.0
2014-Apr-10 16:23N 31°60' E 120°50'0 0.0
2014-Apr-10 15:08N 31°60' E 120°50'0 0.1
2014-Apr-10 14:30N 31°60' E 120°50'0 0.1
2014-Apr-10 13:33N 31°60' E 120°50'0 0.0
2014-Apr-10 12:32N 31°60' E 120°50'0 0.0
2014-Apr-10 11:09N 31°60' E 120°50'0 0.0
2014-Apr-10 10:24N 31°60' E 120°50'0 0.1
2014-Apr-10 09:29N 31°60' E 120°50'0 0.1
2014-Apr-10 08:30N 31°60' E 120°50'0 0.0
2014-Apr-10 07:23N 31°60' E 120°50'0 0.1
2014-Apr-10 06:30N 31°60' E 120°50'0 0.0
2014-Apr-10 05:30N 31°60' E 120°50'0 0.0
2014-Apr-10 04:32N 31°60' E 120°50'0 0.1
2014-Apr-10 03:32N 31°60' E 120°50'0 0.0
2014-Apr-10 02:32N 31°60' E 120°50'0 0.1
2014-Apr-10 01:29N 31°60' E 120°50'0 0.0
2014-Apr-10 00:26N 31°60' E 120°50'0 0.0
2014-Apr-09 23:30N 31°60' E 120°50'0 0.0
2014-Apr-09 22:29N 31°60' E 120°50'0 0.0
2014-Apr-09 21:12N 31°60' E 120°50'0 0.0
2014-Apr-09 20:29N 31°60' E 120°50'0 0.0
2014-Apr-09 19:29N 31°60' E 120°50'0 0.1
2014-Apr-09 18:33N 31°60' E 120°50'0 0.0
2014-Apr-09 17:30N 31°60' E 120°50'0 0.0
2014-Apr-09 16:32N 31°60' E 120°50'0 0.0
2014-Apr-09 15:32N 31°60' E 120°50'0 0.0
2014-Apr-09 14:20N 31°60' E 120°50'0 0.0
2014-Apr-09 13:29N 31°60' E 120°50'0 0.0
2014-Apr-09 12:17N 31°60' E 120°50'0 0.0
2014-Apr-09 11:29N 31°60' E 120°50'0 0.1
2014-Apr-09 10:32N 31°60' E 120°50'0 0.0
2014-Apr-09 09:20N 31°60' E 120°50'0 0.1
2014-Apr-09 08:26N 31°60' E 120°50'0 0.0
2014-Apr-09 07:26N 31°60' E 120°50'0 0.0
2014-Apr-09 06:32N 31°60' E 120°50'0 0.0
2014-Apr-09 05:20N 31°60' E 120°50'0 0.1
2014-Apr-09 04:32N 31°60' E 120°50'0 0.0
2014-Apr-09 03:18N 31°60' E 120°50'0 0.0
2014-Apr-09 02:29N 31°60' E 120°50'0 0.0
2014-Apr-09 01:17N 31°60' E 120°50'0 0.0
2014-Apr-09 00:17N 31°60' E 120°50'0 0.0
2014-Apr-08 23:17N 31°60' E 120°50'0 0.0
2014-Apr-08 22:29N 31°60' E 120°50'  

Dump ship's entire track history

sailing weather and tide predictions

Star Epsilon — V7NZ7 — position and weather